SAVT/REL METAR and TAF weather

Enter ICAO airport designator
Station Type Date Time Source
SAVT METAR 2021/03/07 06:15 UTC NOAA

SAVT 070615Z 29002KT 9999 -SHRA FEW040 SCT100 23/13 Q1006


Station Type Date Time Source
SAVT Decoded METAR 2021/03/07 06:15 UTC NOAA

Trelew Aerodrome, Argentina (SAVT) 43-12S 065-16W 43M
Mar 07, 2021 - 01:15 AM EST / 2021.03.07 0615 UTC
Wind: from the WNW (290 degrees) at 2 MPH (2 KT):0
Visibility: greater than 7 mile(s):0
Sky conditions: partly cloudy
Weather: light rain showers
Temperature: 73 F (23 C)
Dew Point: 55 F (13 C)
Relative Humidity: 53%
Pressure (altimeter): 29.71 in. Hg (1006 hPa)
ob: SAVT 070615Z 29002KT 9999 -SHRA FEW040 SCT100 23/13 Q1006
cycle: 6

Station Type Date Time Source
SAVT TAF 2021/02/19 18:18 UTC NOAA

TAF SAVT 191700Z 1918/2018 21020G30KT 9999 SCT030 TX20/1919Z TN10/2010Z
BECMG 2001/2003 VRB05KT CAVOK
BECMG 2013/2015 30010KT

Example: see airport list